sensor_id;sensor_type;location;lat;lon;timestamp;pressure;altitude;pressure_sealevel;temperature;humidity
50430;BME280;36359;41.556;-8.418;2023-07-16T00:00:12;100490.91;;;19.62;66.86
50430;BME280;36359;41.556;-8.418;2023-07-16T00:02:38;100496.16;;;19.50;65.71
50430;BME280;36359;41.556;-8.418;2023-07-16T00:05:04;100485.44;;;19.27;64.23
50430;BME280;36359;41.556;-8.418;2023-07-16T00:07:30;100481.78;;;19.20;65.79
50430;BME280;36359;41.556;-8.418;2023-07-16T00:09:56;100482.94;;;19.33;68.76
50430;BME280;36359;41.556;-8.418;2023-07-16T00:12:21;100489.00;;;19.63;67.46
50430;BME280;36359;41.556;-8.418;2023-07-16T00:14:48;100480.00;;;19.41;66.83
50430;BME280;36359;41.556;-8.418;2023-07-16T00:17:13;100483.41;;;19.43;66.19
50430;BME280;36359;41.556;-8.418;2023-07-16T00:19:39;100478.47;;;19.73;67.27
50430;BME280;36359;41.556;-8.418;2023-07-16T00:22:05;100481.19;;;19.66;67.31
50430;BME280;36359;41.556;-8.418;2023-07-16T00:24:31;100469.72;;;19.56;62.32
50430;BME280;36359;41.556;-8.418;2023-07-16T00:26:57;100470.84;;;19.68;65.39
50430;BME280;36359;41.556;-8.418;2023-07-16T00:29:23;100465.19;;;19.83;62.12
50430;BME280;36359;41.556;-8.418;2023-07-16T00:31:49;100464.69;;;19.66;63.50
50430;BME280;36359;41.556;-8.418;2023-07-16T00:34:14;100456.16;;;19.13;63.00
50430;BME280;36359;41.556;-8.418;2023-07-16T00:36:40;100463.28;;;19.36;65.46
50430;BME280;36359;41.556;-8.418;2023-07-16T00:39:06;100459.03;;;18.98;63.78
50430;BME280;36359;41.556;-8.418;2023-07-16T00:41:32;100456.97;;;19.07;63.71
50430;BME280;36359;41.556;-8.418;2023-07-16T00:43:58;100448.59;;;19.22;67.32
50430;BME280;36359;41.556;-8.418;2023-07-16T00:46:24;100451.09;;;19.17;67.27
50430;BME280;36359;41.556;-8.418;2023-07-16T00:48:50;100441.28;;;19.01;64.41
50430;BME280;36359;41.556;-8.418;2023-07-16T00:51:17;100443.63;;;19.04;66.83
50430;BME280;36359;41.556;-8.418;2023-07-16T00:53:44;100438.50;;;19.36;65.03
50430;BME280;36359;41.556;-8.418;2023-07-16T00:56:11;100428.63;;;19.61;64.89
50430;BME280;36359;41.556;-8.418;2023-07-16T00:58:39;100434.63;;;19.65;64.90
50430;BME280;36359;41.556;-8.418;2023-07-16T01:01:05;100431.69;;;19.25;66.22
50430;BME280;36359;41.556;-8.418;2023-07-16T01:03:30;100424.72;;;19.84;65.51
50430;BME280;36359;41.556;-8.418;2023-07-16T01:06:22;100425.75;;;19.69;64.90
50430;BME280;36359;41.556;-8.418;2023-07-16T01:11:34;100421.50;;;19.67;65.53
50430;BME280;36359;41.556;-8.418;2023-07-16T01:14:03;100416.13;;;19.52;67.57
50430;BME280;36359;41.556;-8.418;2023-07-16T01:16:31;100414.63;;;19.01;67.47
50430;BME280;36359;41.556;-8.418;2023-07-16T01:18:57;100411.66;;;19.44;68.52
50430;BME280;36359;41.556;-8.418;2023-07-16T01:21:24;100402.94;;;19.41;66.65
50430;BME280;36359;41.556;-8.418;2023-07-16T01:29:31;100398.84;;;19.65;68.74
50430;BME280;36359;41.556;-8.418;2023-07-16T01:32:00;100391.94;;;19.41;66.69
50430;BME280;36359;41.556;-8.418;2023-07-16T01:34:31;100393.69;;;19.62;65.83
50430;BME280;36359;41.556;-8.418;2023-07-16T01:37:03;100385.94;;;19.17;67.66
50430;BME280;36359;41.556;-8.418;2023-07-16T01:39:30;100380.84;;;19.14;68.38
50430;BME280;36359;41.556;-8.418;2023-07-16T01:41:56;100384.44;;;18.45;68.17
50430;BME280;36359;41.556;-8.418;2023-07-16T01:44:22;100386.16;;;18.53;68.68
50430;BME280;36359;41.556;-8.418;2023-07-16T01:47:06;100376.72;;;18.97;70.15
50430;BME280;36359;41.556;-8.418;2023-07-16T01:49:33;100370.19;;;18.98;66.93
50430;BME280;36359;41.556;-8.418;2023-07-16T01:52:01;100370.31;;;18.55;67.75
50430;BME280;36359;41.556;-8.418;2023-07-16T01:54:27;100356.63;;;18.27;68.48
50430;BME280;36359;41.556;-8.418;2023-07-16T01:56:53;100353.69;;;18.35;69.04
50430;BME280;36359;41.556;-8.418;2023-07-16T01:59:18;100348.69;;;18.17;72.22
50430;BME280;36359;41.556;-8.418;2023-07-16T02:01:44;100355.72;;;18.48;71.30
50430;BME280;36359;41.556;-8.418;2023-07-16T02:04:10;100352.56;;;18.51;70.03
50430;BME280;36359;41.556;-8.418;2023-07-16T02:06:35;100357.31;;;18.70;69.68
50430;BME280;36359;41.556;-8.418;2023-07-16T02:09:01;100354.78;;;18.69;68.67
50430;BME280;36359;41.556;-8.418;2023-07-16T02:11:27;100354.47;;;19.33;70.10
50430;BME280;36359;41.556;-8.418;2023-07-16T02:13:52;100349.94;;;18.71;67.82
50430;BME280;36359;41.556;-8.418;2023-07-16T02:16:18;100355.16;;;17.81;70.10
50430;BME280;36359;41.556;-8.418;2023-07-16T02:18:44;100341.69;;;17.86;70.61
50430;BME280;36359;41.556;-8.418;2023-07-16T02:21:10;100349.75;;;17.73;71.05
50430;BME280;36359;41.556;-8.418;2023-07-16T02:23:36;100345.16;;;17.74;71.90
50430;BME280;36359;41.556;-8.418;2023-07-16T02:26:01;100341.91;;;17.48;72.28
50430;BME280;36359;41.556;-8.418;2023-07-16T02:28:27;100356.03;;;17.67;73.07
50430;BME280;36359;41.556;-8.418;2023-07-16T02:30:53;100363.69;;;17.71;73.68
50430;BME280;36359;41.556;-8.418;2023-07-16T02:33:18;100359.44;;;17.47;72.91
50430;BME280;36359;41.556;-8.418;2023-07-16T02:35:48;100363.59;;;17.80;71.78
50430;BME280;36359;41.556;-8.418;2023-07-16T02:38:20;100364.22;;;17.82;70.92
50430;BME280;36359;41.556;-8.418;2023-07-16T02:40:47;100362.59;;;17.87;71.35
50430;BME280;36359;41.556;-8.418;2023-07-16T02:43:14;100364.72;;;17.85;71.78
50430;BME280;36359;41.556;-8.418;2023-07-16T02:45:40;100365.34;;;18.09;71.06
50430;BME280;36359;41.556;-8.418;2023-07-16T02:48:06;100371.28;;;18.12;70.23
50430;BME280;36359;41.556;-8.418;2023-07-16T02:50:38;100371.31;;;18.19;68.95
50430;BME280;36359;41.556;-8.418;2023-07-16T02:53:05;100373.56;;;17.87;70.14
50430;BME280;36359;41.556;-8.418;2023-07-16T02:55:31;100366.31;;;18.29;69.78
50430;BME280;36359;41.556;-8.418;2023-07-16T02:57:57;100368.63;;;18.26;71.32
50430;BME280;36359;41.556;-8.418;2023-07-16T03:00:23;100369.41;;;17.91;70.15
50430;BME280;36359;41.556;-8.418;2023-07-16T03:02:49;100364.16;;;17.97;69.89
50430;BME280;36359;41.556;-8.418;2023-07-16T03:05:16;100367.03;;;18.10;70.09
50430;BME280;36359;41.556;-8.418;2023-07-16T03:07:42;100362.75;;;18.29;69.74
50430;BME280;36359;41.556;-8.418;2023-07-16T03:10:09;100356.44;;;18.63;70.53
50430;BME280;36359;41.556;-8.418;2023-07-16T03:12:34;100360.97;;;18.49;68.81
50430;BME280;36359;41.556;-8.418;2023-07-16T03:15:01;100368.94;;;18.37;68.19
50430;BME280;36359;41.556;-8.418;2023-07-16T03:17:26;100364.19;;;18.25;69.55
50430;BME280;36359;41.556;-8.418;2023-07-16T03:19:52;100356.72;;;17.90;71.06
50430;BME280;36359;41.556;-8.418;2023-07-16T03:22:18;100363.28;;;17.75;70.66
50430;BME280;36359;41.556;-8.418;2023-07-16T03:24:43;100354.41;;;17.73;70.71
50430;BME280;36359;41.556;-8.418;2023-07-16T03:27:09;100361.78;;;17.72;74.49
50430;BME280;36359;41.556;-8.418;2023-07-16T03:29:35;100367.91;;;18.17;70.43
50430;BME280;36359;41.556;-8.418;2023-07-16T03:32:02;100365.72;;;18.06;69.59
50430;BME280;36359;41.556;-8.418;2023-07-16T03:34:29;100366.06;;;17.96;70.05
50430;BME280;36359;41.556;-8.418;2023-07-16T03:36:55;100358.66;;;17.97;69.83
50430;BME280;36359;41.556;-8.418;2023-07-16T03:39:21;100354.19;;;17.89;69.60
50430;BME280;36359;41.556;-8.418;2023-07-16T03:41:47;100360.31;;;17.91;69.74
50430;BME280;36359;41.556;-8.418;2023-07-16T03:44:13;100362.59;;;17.87;70.25
50430;BME280;36359;41.556;-8.418;2023-07-16T03:46:39;100365.03;;;17.97;71.56
50430;BME280;36359;41.556;-8.418;2023-07-16T03:49:07;100361.81;;;17.93;69.78
50430;BME280;36359;41.556;-8.418;2023-07-16T03:51:34;100363.72;;;17.93;70.27
50430;BME280;36359;41.556;-8.418;2023-07-16T03:54:00;100363.78;;;17.78;70.16
50430;BME280;36359;41.556;-8.418;2023-07-16T03:56:26;100364.31;;;17.88;72.42
50430;BME280;36359;41.556;-8.418;2023-07-16T03:58:51;100369.50;;;17.62;70.69
50430;BME280;36359;41.556;-8.418;2023-07-16T04:01:17;100361.63;;;17.59;70.58
50430;BME280;36359;41.556;-8.418;2023-07-16T04:03:43;100373.13;;;17.84;72.27
50430;BME280;36359;41.556;-8.418;2023-07-16T04:06:09;100369.50;;;18.05;69.80
50430;BME280;36359;41.556;-8.418;2023-07-16T04:08:36;100372.16;;;18.20;73.96
50430;BME280;36359;41.556;-8.418;2023-07-16T04:11:04;100366.09;;;18.03;70.17
50430;BME280;36359;41.556;-8.418;2023-07-16T04:13:30;100373.44;;;17.96;69.90
50430;BME280;36359;41.556;-8.418;2023-07-16T04:15:56;100368.91;;;17.66;70.47
50430;BME280;36359;41.556;-8.418;2023-07-16T04:18:25;100372.47;;;17.45;71.31
50430;BME280;36359;41.556;-8.418;2023-07-16T04:20:51;100377.97;;;17.67;73.14
50430;BME280;36359;41.556;-8.418;2023-07-16T04:23:17;100379.59;;;17.61;73.18
50430;BME280;36359;41.556;-8.418;2023-07-16T04:25:43;100376.13;;;17.53;71.00
50430;BME280;36359;41.556;-8.418;2023-07-16T04:28:10;100382.78;;;17.43;71.94
50430;BME280;36359;41.556;-8.418;2023-07-16T04:30:36;100383.00;;;17.78;73.25
50430;BME280;36359;41.556;-8.418;2023-07-16T04:33:03;100381.56;;;17.46;71.84
50430;BME280;36359;41.556;-8.418;2023-07-16T04:35:29;100380.38;;;17.19;72.85
50430;BME280;36359;41.556;-8.418;2023-07-16T04:37:55;100386.63;;;16.53;75.68
50430;BME280;36359;41.556;-8.418;2023-07-16T04:40:20;100387.91;;;16.80;76.59
50430;BME280;36359;41.556;-8.418;2023-07-16T04:42:46;100389.78;;;16.80;75.77
50430;BME280;36359;41.556;-8.418;2023-07-16T04:45:12;100403.25;;;16.67;75.50
50430;BME280;36359;41.556;-8.418;2023-07-16T04:47:38;100394.78;;;16.76;75.51
50430;BME280;36359;41.556;-8.418;2023-07-16T04:50:04;100393.75;;;16.77;74.92
50430;BME280;36359;41.556;-8.418;2023-07-16T04:52:30;100400.91;;;16.93;74.94
50430;BME280;36359;41.556;-8.418;2023-07-16T04:54:56;100395.16;;;16.88;75.57
50430;BME280;36359;41.556;-8.418;2023-07-16T04:57:22;100394.97;;;17.05;74.56
50430;BME280;36359;41.556;-8.418;2023-07-16T04:59:48;100401.69;;;17.02;74.49
50430;BME280;36359;41.556;-8.418;2023-07-16T05:02:13;100398.84;;;17.10;73.72
50430;BME280;36359;41.556;-8.418;2023-07-16T05:04:40;100399.31;;;17.14;73.72
50430;BME280;36359;41.556;-8.418;2023-07-16T05:07:06;100396.75;;;17.12;73.61
50430;BME280;36359;41.556;-8.418;2023-07-16T05:09:32;100399.00;;;17.09;73.07
50430;BME280;36359;41.556;-8.418;2023-07-16T05:11:58;100402.50;;;17.02;73.05
50430;BME280;36359;41.556;-8.418;2023-07-16T05:14:27;100403.47;;;17.10;76.73
50430;BME280;36359;41.556;-8.418;2023-07-16T05:16:53;100389.44;;;17.34;74.34
50430;BME280;36359;41.556;-8.418;2023-07-16T05:19:19;100394.56;;;17.22;73.16
50430;BME280;36359;41.556;-8.418;2023-07-16T05:21:45;100398.59;;;17.41;74.97
50430;BME280;36359;41.556;-8.418;2023-07-16T05:24:11;100390.16;;;17.43;73.57
50430;BME280;36359;41.556;-8.418;2023-07-16T05:26:37;100392.56;;;17.31;72.94
50430;BME280;36359;41.556;-8.418;2023-07-16T05:29:03;100392.72;;;17.44;73.11
50430;BME280;36359;41.556;-8.418;2023-07-16T05:31:29;100388.41;;;17.20;72.94
50430;BME280;36359;41.556;-8.418;2023-07-16T05:33:54;100391.16;;;17.06;72.96
50430;BME280;36359;41.556;-8.418;2023-07-16T05:36:20;100392.91;;;17.07;73.17
50430;BME280;36359;41.556;-8.418;2023-07-16T05:38:45;100387.59;;;17.05;73.19
50430;BME280;36359;41.556;-8.418;2023-07-16T05:41:11;100382.00;;;17.49;76.64
50430;BME280;36359;41.556;-8.418;2023-07-16T05:43:37;100386.09;;;17.75;73.58
50430;BME280;36359;41.556;-8.418;2023-07-16T05:46:03;100380.00;;;17.58;73.97
50430;BME280;36359;41.556;-8.418;2023-07-16T05:48:31;100381.63;;;17.53;71.91
50430;BME280;36359;41.556;-8.418;2023-07-16T05:50:56;100388.13;;;17.30;72.50
50430;BME280;36359;41.556;-8.418;2023-07-16T05:53:22;100392.84;;;17.36;74.44
50430;BME280;36359;41.556;-8.418;2023-07-16T05:55:48;100391.28;;;17.48;73.04
50430;BME280;36359;41.556;-8.418;2023-07-16T05:58:15;100388.81;;;17.54;72.92
50430;BME280;36359;41.556;-8.418;2023-07-16T06:00:41;100385.13;;;17.46;74.44
50430;BME280;36359;41.556;-8.418;2023-07-16T06:03:07;100391.69;;;17.45;74.40
50430;BME280;36359;41.556;-8.418;2023-07-16T06:05:33;100388.75;;;17.32;73.41
50430;BME280;36359;41.556;-8.418;2023-07-16T06:08:00;100394.06;;;17.34;76.12
50430;BME280;36359;41.556;-8.418;2023-07-16T06:10:26;100396.31;;;17.81;77.61
50430;BME280;36359;41.556;-8.418;2023-07-16T06:12:51;100403.06;;;17.64;72.90
50430;BME280;36359;41.556;-8.418;2023-07-16T06:15:17;100402.72;;;17.52;72.59
50430;BME280;36359;41.556;-8.418;2023-07-16T06:17:43;100406.25;;;17.46;73.20
50430;BME280;36359;41.556;-8.418;2023-07-16T06:20:09;100402.00;;;17.29;74.01
50430;BME280;36359;41.556;-8.418;2023-07-16T06:22:35;100402.72;;;17.16;74.84
50430;BME280;36359;41.556;-8.418;2023-07-16T06:25:00;100404.78;;;17.14;75.58
50430;BME280;36359;41.556;-8.418;2023-07-16T06:27:26;100417.59;;;16.54;77.75
50430;BME280;36359;41.556;-8.418;2023-07-16T06:29:52;100418.75;;;16.60;78.44
50430;BME280;36359;41.556;-8.418;2023-07-16T06:32:17;100424.28;;;16.89;76.98
50430;BME280;36359;41.556;-8.418;2023-07-16T06:34:43;100421.28;;;16.61;77.48
50430;BME280;36359;41.556;-8.418;2023-07-16T06:37:09;100425.81;;;16.54;78.29
50430;BME280;36359;41.556;-8.418;2023-07-16T06:39:35;100427.53;;;16.70;78.07
50430;BME280;36359;41.556;-8.418;2023-07-16T06:42:01;100428.72;;;16.90;77.12
50430;BME280;36359;41.556;-8.418;2023-07-16T06:44:26;100432.50;;;17.04;76.42
50430;BME280;36359;41.556;-8.418;2023-07-16T06:46:52;100429.53;;;17.06;76.17
50430;BME280;36359;41.556;-8.418;2023-07-16T06:49:18;100430.19;;;17.37;75.32
50430;BME280;36359;41.556;-8.418;2023-07-16T06:51:44;100429.88;;;17.62;73.94
50430;BME280;36359;41.556;-8.418;2023-07-16T06:54:10;100431.78;;;17.46;74.21
50430;BME280;36359;41.556;-8.418;2023-07-16T06:56:35;100437.88;;;17.78;75.95
50430;BME280;36359;41.556;-8.418;2023-07-16T06:59:01;100440.16;;;17.96;74.63
50430;BME280;36359;41.556;-8.418;2023-07-16T07:01:27;100435.78;;;18.02;74.07
50430;BME280;36359;41.556;-8.418;2023-07-16T07:03:53;100443.13;;;18.16;72.11
50430;BME280;36359;41.556;-8.418;2023-07-16T07:06:19;100442.06;;;18.38;71.45
50430;BME280;36359;41.556;-8.418;2023-07-16T07:08:47;100436.84;;;18.22;71.21
50430;BME280;36359;41.556;-8.418;2023-07-16T07:11:13;100444.09;;;17.72;72.97
50430;BME280;36359;41.556;-8.418;2023-07-16T07:13:38;100448.41;;;17.96;73.07
50430;BME280;36359;41.556;-8.418;2023-07-16T07:16:04;100444.97;;;18.09;72.00
50430;BME280;36359;41.556;-8.418;2023-07-16T07:18:30;100448.22;;;18.19;71.68
50430;BME280;36359;41.556;-8.418;2023-07-16T07:20:56;100444.25;;;18.50;72.11
50430;BME280;36359;41.556;-8.418;2023-07-16T07:23:21;100443.16;;;18.72;71.36
50430;BME280;36359;41.556;-8.418;2023-07-16T07:25:51;100441.38;;;18.58;70.12
50430;BME280;36359;41.556;-8.418;2023-07-16T07:28:17;100439.06;;;18.83;70.53
50430;BME280;36359;41.556;-8.418;2023-07-16T07:30:43;100434.38;;;18.77;70.10
50430;BME280;36359;41.556;-8.418;2023-07-16T07:33:09;100436.59;;;18.95;69.70
50430;BME280;36359;41.556;-8.418;2023-07-16T07:35:35;100445.44;;;18.90;70.73
50430;BME280;36359;41.556;-8.418;2023-07-16T07:38:01;100447.53;;;19.23;68.56
50430;BME280;36359;41.556;-8.418;2023-07-16T07:40:26;100448.69;;;19.42;68.16
50430;BME280;36359;41.556;-8.418;2023-07-16T07:42:52;100456.44;;;19.66;65.90
50430;BME280;36359;41.556;-8.418;2023-07-16T07:45:18;100450.34;;;19.36;66.01
50430;BME280;36359;41.556;-8.418;2023-07-16T07:47:44;100455.53;;;19.59;68.76
50430;BME280;36359;41.556;-8.418;2023-07-16T07:50:09;100455.53;;;19.59;65.87
50430;BME280;36359;41.556;-8.418;2023-07-16T07:52:35;100450.56;;;19.89;66.72
50430;BME280;36359;41.556;-8.418;2023-07-16T07:55:01;100457.81;;;20.04;65.43
50430;BME280;36359;41.556;-8.418;2023-07-16T07:57:27;100463.78;;;20.27;64.12
50430;BME280;36359;41.556;-8.418;2023-07-16T07:59:53;100470.97;;;20.35;62.32
50430;BME280;36359;41.556;-8.418;2023-07-16T08:02:25;100461.84;;;20.08;62.03
50430;BME280;36359;41.556;-8.418;2023-07-16T08:04:54;100463.59;;;20.42;62.73
50430;BME280;36359;41.556;-8.418;2023-07-16T08:07:21;100472.91;;;20.48;61.16
50430;BME280;36359;41.556;-8.418;2023-07-16T08:09:47;100465.47;;;20.35;60.62
50430;BME280;36359;41.556;-8.418;2023-07-16T08:12:14;100463.56;;;20.29;61.24
50430;BME280;36359;41.556;-8.418;2023-07-16T08:14:40;100466.97;;;20.51;63.36
50430;BME280;36359;41.556;-8.418;2023-07-16T08:17:07;100468.00;;;20.16;60.30
50430;BME280;36359;41.556;-8.418;2023-07-16T08:19:33;100456.97;;;20.10;62.52
50430;BME280;36359;41.556;-8.418;2023-07-16T08:21:58;100458.44;;;20.06;61.96
50430;BME280;36359;41.556;-8.418;2023-07-16T08:24:27;100462.06;;;20.06;62.61
50430;BME280;36359;41.556;-8.418;2023-07-16T08:26:53;100455.28;;;20.15;62.67
50430;BME280;36359;41.556;-8.418;2023-07-16T08:29:18;100452.75;;;20.20;62.27
50430;BME280;36359;41.556;-8.418;2023-07-16T08:31:44;100458.00;;;20.09;61.77
50430;BME280;36359;41.556;-8.418;2023-07-16T08:34:10;100467.38;;;20.34;60.49
50430;BME280;36359;41.556;-8.418;2023-07-16T08:36:36;100458.25;;;20.20;60.23
50430;BME280;36359;41.556;-8.418;2023-07-16T08:39:03;100462.28;;;20.38;60.45
50430;BME280;36359;41.556;-8.418;2023-07-16T08:41:29;100461.66;;;20.49;59.59
50430;BME280;36359;41.556;-8.418;2023-07-16T08:43:56;100464.66;;;20.68;61.63
50430;BME280;36359;41.556;-8.418;2023-07-16T08:46:22;100469.31;;;20.94;57.46
50430;BME280;36359;41.556;-8.418;2023-07-16T08:48:48;100464.03;;;20.79;57.01
50430;BME280;36359;41.556;-8.418;2023-07-16T08:51:15;100466.09;;;21.10;58.16
50430;BME280;36359;41.556;-8.418;2023-07-16T08:53:41;100459.56;;;20.84;56.46
50430;BME280;36359;41.556;-8.418;2023-07-16T08:56:07;100465.28;;;20.96;58.48
50430;BME280;36359;41.556;-8.418;2023-07-16T08:58:34;100462.84;;;21.26;57.50
50430;BME280;36359;41.556;-8.418;2023-07-16T09:01:00;100462.03;;;21.39;59.09
50430;BME280;36359;41.556;-8.418;2023-07-16T09:03:26;100461.59;;;21.29;56.44
50430;BME280;36359;41.556;-8.418;2023-07-16T09:05:54;100450.53;;;21.29;57.62
50430;BME280;36359;41.556;-8.418;2023-07-16T09:08:19;100449.06;;;21.33;57.92
50430;BME280;36359;41.556;-8.418;2023-07-16T09:10:53;100445.63;;;21.51;56.53
50430;BME280;36359;41.556;-8.418;2023-07-16T09:13:18;100446.94;;;21.28;55.72
50430;BME280;36359;41.556;-8.418;2023-07-16T09:15:44;100449.31;;;21.12;54.84
50430;BME280;36359;41.556;-8.418;2023-07-16T09:18:11;100451.06;;;20.93;56.52
50430;BME280;36359;41.556;-8.418;2023-07-16T09:20:39;100448.28;;;21.13;56.58
50430;BME280;36359;41.556;-8.418;2023-07-16T09:23:05;100440.78;;;21.40;54.66
50430;BME280;36359;41.556;-8.418;2023-07-16T09:25:31;100453.19;;;20.97;57.49
50430;BME280;36359;41.556;-8.418;2023-07-16T09:28:04;100458.00;;;21.22;56.89
50430;BME280;36359;41.556;-8.418;2023-07-16T09:30:31;100460.09;;;21.26;57.43
50430;BME280;36359;41.556;-8.418;2023-07-16T09:33:13;100451.06;;;21.71;57.78
50430;BME280;36359;41.556;-8.418;2023-07-16T09:35:39;100448.38;;;21.96;56.47
50430;BME280;36359;41.556;-8.418;2023-07-16T09:38:06;100446.81;;;22.07;54.84
50430;BME280;36359;41.556;-8.418;2023-07-16T09:40:32;100444.38;;;22.23;52.74
50430;BME280;36359;41.556;-8.418;2023-07-16T09:42:58;100445.31;;;22.42;55.56
50430;BME280;36359;41.556;-8.418;2023-07-16T09:45:24;100442.47;;;22.24;52.47
50430;BME280;36359;41.556;-8.418;2023-07-16T09:47:49;100436.78;;;22.44;54.92
50430;BME280;36359;41.556;-8.418;2023-07-16T09:50:15;100443.97;;;21.82;51.65
50430;BME280;36359;41.556;-8.418;2023-07-16T09:52:41;100432.31;;;22.18;52.01
50430;BME280;36359;41.556;-8.418;2023-07-16T09:55:09;100452.81;;;21.97;52.30
50430;BME280;36359;41.556;-8.418;2023-07-16T09:57:39;100447.72;;;21.94;50.57
50430;BME280;36359;41.556;-8.418;2023-07-16T10:00:09;100447.72;;;22.00;50.87
50430;BME280;36359;41.556;-8.418;2023-07-16T10:02:39;100447.25;;;22.35;50.08
50430;BME280;36359;41.556;-8.418;2023-07-16T10:05:23;100443.97;;;22.27;47.34
50430;BME280;36359;41.556;-8.418;2023-07-16T10:08:00;100450.34;;;22.20;47.17
50430;BME280;36359;41.556;-8.418;2023-07-16T10:10:45;100450.38;;;22.14;52.76
50430;BME280;36359;41.556;-8.418;2023-07-16T10:13:14;100456.50;;;22.22;47.27
50430;BME280;36359;41.556;-8.418;2023-07-16T10:16:00;100453.41;;;22.37;47.11
50430;BME280;36359;41.556;-8.418;2023-07-16T10:18:28;100445.34;;;22.61;50.96
50430;BME280;36359;41.556;-8.418;2023-07-16T10:21:06;100441.50;;;22.05;49.81
50430;BME280;36359;41.556;-8.418;2023-07-16T10:23:39;100447.56;;;22.52;49.80
50430;BME280;36359;41.556;-8.418;2023-07-16T10:26:06;100448.28;;;22.41;49.62
50430;BME280;36359;41.556;-8.418;2023-07-16T10:28:33;100446.38;;;22.92;52.96
50430;BME280;36359;41.556;-8.418;2023-07-16T10:30:59;100452.28;;;22.70;47.59
50430;BME280;36359;41.556;-8.418;2023-07-16T10:33:25;100446.66;;;22.83;45.14
50430;BME280;36359;41.556;-8.418;2023-07-16T10:35:50;100450.19;;;22.90;43.55
50430;BME280;36359;41.556;-8.418;2023-07-16T10:38:16;100453.59;;;22.67;42.96
50430;BME280;36359;41.556;-8.418;2023-07-16T10:40:43;100448.28;;;22.41;43.17
50430;BME280;36359;41.556;-8.418;2023-07-16T10:43:09;100437.81;;;22.75;49.76
50430;BME280;36359;41.556;-8.418;2023-07-16T10:45:38;100441.19;;;22.77;42.41
50430;BME280;36359;41.556;-8.418;2023-07-16T10:48:04;100441.72;;;23.10;42.57
50430;BME280;36359;41.556;-8.418;2023-07-16T10:50:34;100441.34;;;23.25;41.44
50430;BME280;36359;41.556;-8.418;2023-07-16T10:53:00;100433.03;;;22.82;41.12
50430;BME280;36359;41.556;-8.418;2023-07-16T10:55:28;100433.28;;;22.80;41.94
50430;BME280;36359;41.556;-8.418;2023-07-16T10:57:55;100441.13;;;22.83;41.44
50430;BME280;36359;41.556;-8.418;2023-07-16T11:00:21;100429.13;;;22.71;42.41
50430;BME280;36359;41.556;-8.418;2023-07-16T11:02:49;100432.56;;;22.85;44.22
50430;BME280;36359;41.556;-8.418;2023-07-16T11:05:16;100426.66;;;22.81;44.99
50430;BME280;36359;41.556;-8.418;2023-07-16T11:07:46;100430.47;;;23.05;44.10
50430;BME280;36359;41.556;-8.418;2023-07-16T11:10:15;100431.91;;;22.89;42.77
50430;BME280;36359;41.556;-8.418;2023-07-16T11:12:41;100425.88;;;22.99;41.67
50430;BME280;36359;41.556;-8.418;2023-07-16T11:15:07;100427.66;;;23.30;42.94
50430;BME280;36359;41.556;-8.418;2023-07-16T11:17:33;100422.25;;;23.72;42.75
50430;BME280;36359;41.556;-8.418;2023-07-16T11:20:00;100424.78;;;24.04;43.10
50430;BME280;36359;41.556;-8.418;2023-07-16T11:22:26;100422.34;;;23.96;45.79
50430;BME280;36359;41.556;-8.418;2023-07-16T11:24:53;100426.38;;;23.63;43.26
50430;BME280;36359;41.556;-8.418;2023-07-16T11:27:25;100427.06;;;24.07;43.31
50430;BME280;36359;41.556;-8.418;2023-07-16T11:29:54;100418.81;;;23.89;44.37
50430;BME280;36359;41.556;-8.418;2023-07-16T11:32:29;100432.09;;;23.68;45.73
50430;BME280;36359;41.556;-8.418;2023-07-16T11:34:56;100425.06;;;23.84;46.21
50430;BME280;36359;41.556;-8.418;2023-07-16T11:37:24;100410.59;;;23.82;44.01
50430;BME280;36359;41.556;-8.418;2023-07-16T11:39:51;100411.72;;;23.93;45.15
50430;BME280;36359;41.556;-8.418;2023-07-16T11:42:39;100418.06;;;23.82;45.09
50430;BME280;36359;41.556;-8.418;2023-07-16T11:45:14;100408.53;;;24.19;44.72
50430;BME280;36359;41.556;-8.418;2023-07-16T11:47:40;100413.72;;;23.74;45.30
50430;BME280;36359;41.556;-8.418;2023-07-16T11:50:06;100419.72;;;24.01;45.04
50430;BME280;36359;41.556;-8.418;2023-07-16T11:52:32;100402.41;;;24.41;43.38
50430;BME280;36359;41.556;-8.418;2023-07-16T11:54:59;100415.75;;;24.62;41.29
50430;BME280;36359;41.556;-8.418;2023-07-16T11:57:29;100403.22;;;24.60;42.83
50430;BME280;36359;41.556;-8.418;2023-07-16T11:59:55;100400.91;;;25.04;42.56
50430;BME280;36359;41.556;-8.418;2023-07-16T12:02:21;100400.75;;;24.40;41.96
50430;BME280;36359;41.556;-8.418;2023-07-16T12:04:48;100410.84;;;23.62;43.33
50430;BME280;36359;41.556;-8.418;2023-07-16T12:07:13;100403.66;;;23.43;44.43
50430;BME280;36359;41.556;-8.418;2023-07-16T12:09:39;100391.53;;;24.04;42.67
50430;BME280;36359;41.556;-8.418;2023-07-16T12:12:05;100388.53;;;24.29;43.36
50430;BME280;36359;41.556;-8.418;2023-07-16T12:14:32;100397.75;;;24.41;43.44
50430;BME280;36359;41.556;-8.418;2023-07-16T12:16:57;100397.84;;;24.35;43.73
50430;BME280;36359;41.556;-8.418;2023-07-16T12:19:24;100390.56;;;24.10;43.04
50430;BME280;36359;41.556;-8.418;2023-07-16T12:21:50;100391.53;;;24.16;43.96
50430;BME280;36359;41.556;-8.418;2023-07-16T12:24:16;100391.06;;;24.19;42.92
50430;BME280;36359;41.556;-8.418;2023-07-16T12:26:41;100399.81;;;24.58;42.43
50430;BME280;36359;41.556;-8.418;2023-07-16T12:29:07;100394.63;;;24.50;41.83
50430;BME280;36359;41.556;-8.418;2023-07-16T12:31:33;100389.69;;;24.63;42.65
50430;BME280;36359;41.556;-8.418;2023-07-16T12:34:00;100387.16;;;24.62;42.18
50430;BME280;36359;41.556;-8.418;2023-07-16T12:36:30;100386.41;;;24.90;42.29
50430;BME280;36359;41.556;-8.418;2023-07-16T12:38:55;100386.88;;;25.10;40.88
50430;BME280;36359;41.556;-8.418;2023-07-16T12:41:21;100382.78;;;24.31;43.00
50430;BME280;36359;41.556;-8.418;2023-07-16T12:43:47;100377.72;;;24.28;43.54
50430;BME280;36359;41.556;-8.418;2023-07-16T12:46:13;100379.22;;;24.65;41.77